createdAt,value
2019-01-03T00:02:07.206Z,1.40
2019-01-03T00:05:10.222Z,1.40
2019-01-03T00:07:59.892Z,1.40
2019-01-03T00:10:51.201Z,1.40
2019-01-03T00:13:48.162Z,1.30
2019-01-03T00:16:39.322Z,1.30
2019-01-03T00:19:45.538Z,1.20
2019-01-03T00:22:34.863Z,1.20
2019-01-03T00:25:24.477Z,1.20
2019-01-03T00:28:21.121Z,1.20
2019-01-03T00:31:21.273Z,1.20
2019-01-03T00:34:10.868Z,1.20
2019-01-03T00:37:04.818Z,1.20
2019-01-03T00:39:47.484Z,1.20
2019-01-03T00:42:38.435Z,1.10
2019-01-03T00:45:41.538Z,1.10
2019-01-03T00:48:44.728Z,1.00
2019-01-03T00:51:37.086Z,1.00
2019-01-03T00:54:28.090Z,0.90
2019-01-03T00:57:23.507Z,0.90
2019-01-03T01:00:21.562Z,0.80
2019-01-03T01:03:24.413Z,0.80
2019-01-03T01:06:14.062Z,0.70
2019-01-03T01:09:14.112Z,0.80
2019-01-03T01:12:20.502Z,0.70
2019-01-03T01:15:23.692Z,0.80
2019-01-03T01:18:14.651Z,0.80
2019-01-03T01:21:05.746Z,0.80
2019-01-03T01:23:57.313Z,0.70
2019-01-03T01:27:06.490Z,0.70
2019-01-03T01:30:12.154Z,0.70
2019-01-03T01:33:11.819Z,0.70
2019-01-03T01:36:01.221Z,0.60
2019-01-03T01:38:52.183Z,0.60
2019-01-03T01:41:39.343Z,0.60
2019-01-03T01:44:29.011Z,0.60
2019-01-03T01:47:25.177Z,0.60
2019-01-03T01:50:21.482Z,0.60
2019-01-03T01:53:21.367Z,0.60
2019-01-03T01:56:15.431Z,0.50
2019-01-03T01:59:06.435Z,0.50
2019-01-03T02:01:57.541Z,0.50
2019-01-03T02:04:47.185Z,0.50
2019-01-03T02:07:38.139Z,0.50
2019-01-03T02:10:38.575Z,0.50
2019-01-03T02:13:44.730Z,0.50
2019-01-03T02:16:34.378Z,0.50
2019-01-03T02:19:28.407Z,0.40
2019-01-03T02:22:25.225Z,0.40
2019-01-03T02:25:14.573Z,0.30
2019-01-03T02:28:04.159Z,0.20
2019-01-03T02:31:07.365Z,0.10
2019-01-03T02:34:10.477Z,0.00
2019-01-03T02:37:16.558Z,0.00
2019-01-03T02:40:16.697Z,0.00
2019-01-03T02:43:10.645Z,0.00
2019-01-03T02:46:01.695Z,0.10
2019-01-03T02:49:01.891Z,0.10
2019-01-03T02:51:56.035Z,0.10
2019-01-03T02:54:47.024Z,0.10
2019-01-03T02:57:43.833Z,0.20
2019-01-03T03:00:33.829Z,0.20
2019-01-03T03:03:26.828Z,0.20
2019-01-03T03:06:26.950Z,0.20
2019-01-03T03:09:15.924Z,0.20
2019-01-03T03:12:05.513Z,0.20
2019-01-03T03:14:49.731Z,0.20
2019-01-03T03:17:49.554Z,0.20
2019-01-03T03:20:49.834Z,0.30
2019-01-03T03:23:49.678Z,0.30
2019-01-03T03:26:35.567Z,0.30
2019-01-03T03:29:25.172Z,0.30
2019-01-03T03:32:14.781Z,0.30
2019-01-03T03:35:08.913Z,0.20
2019-01-03T03:37:58.327Z,0.20
2019-01-03T03:41:07.660Z,0.20
2019-01-03T03:44:10.471Z,0.20
2019-01-03T03:46:59.544Z,0.20
2019-01-03T03:49:53.531Z,0.30
2019-01-03T03:52:43.049Z,0.20
2019-01-03T03:55:52.281Z,0.20
2019-01-03T03:58:41.673Z,0.20
2019-01-03T04:01:37.942Z,0.20
2019-01-03T04:04:27.551Z,0.20
2019-01-03T04:07:18.651Z,0.10
2019-01-03T04:10:12.717Z,0.10
2019-01-03T04:13:03.710Z,0.10
2019-01-03T04:16:03.821Z,0.10
2019-01-03T04:18:53.417Z,0.00
2019-01-03T04:21:43.057Z,-0.10
2019-01-03T04:24:34.075Z,-0.10
2019-01-03T04:27:23.688Z,-0.10
2019-01-03T04:30:23.938Z,-0.20
2019-01-03T04:33:15.052Z,-0.20
2019-01-03T04:36:04.631Z,-0.30
2019-01-03T04:39:10.777Z,-0.40
2019-01-03T04:41:59.999Z,-0.40
2019-01-03T04:45:06.308Z,-0.40
2019-01-03T04:47:53.707Z,-0.30
2019-01-03T04:50:43.415Z,-0.40
2019-01-03T04:53:37.426Z,-0.30
2019-01-03T04:56:43.605Z,-0.30
2019-01-03T04:59:34.615Z,-0.30
2019-01-03T05:02:24.768Z,-0.30
2019-01-03T05:05:21.901Z,-0.30
2019-01-03T05:08:30.992Z,-0.30
2019-01-03T05:11:22.082Z,-0.20
2019-01-03T05:14:13.142Z,-0.10
2019-01-03T05:17:15.995Z,0.00
2019-01-03T05:20:05.579Z,0.00
2019-01-03T05:23:05.628Z,0.10
2019-01-03T05:25:56.633Z,0.10
2019-01-03T05:28:46.239Z,0.10
2019-01-03T05:31:33.920Z,0.00
2019-01-03T05:34:25.074Z,0.00
2019-01-03T05:37:16.100Z,0.00
2019-01-03T05:40:00.357Z,0.00
2019-01-03T05:43:03.301Z,0.10
2019-01-03T05:46:00.356Z,0.10
2019-01-03T05:49:03.518Z,0.00
2019-01-03T05:52:06.561Z,-0.10
2019-01-03T05:55:03.647Z,-0.10
2019-01-03T05:58:09.506Z,-0.10
2019-01-03T06:00:55.680Z,-0.10
2019-01-03T06:04:05.011Z,-0.20
2019-01-03T06:07:02.024Z,-0.20
2019-01-03T06:09:53.029Z,-0.20
2019-01-03T06:12:56.081Z,-0.20
2019-01-03T06:16:05.490Z,-0.20
2019-01-03T06:18:59.429Z,-0.30
2019-01-03T06:21:47.993Z,-0.30
2019-01-03T06:24:37.694Z,-0.40
2019-01-03T06:27:34.897Z,-0.40
2019-01-03T06:30:25.218Z,-0.40
2019-01-03T06:33:24.916Z,-0.50
2019-01-03T06:36:24.803Z,-0.60
2019-01-03T06:39:21.523Z,-0.50
2019-01-03T06:42:11.575Z,-0.40
2019-01-03T06:45:20.427Z,-0.30
2019-01-03T06:48:29.634Z,-0.20
2019-01-03T06:51:29.599Z,-0.10
2019-01-03T06:54:20.549Z,-0.10
2019-01-03T06:57:26.570Z,-0.10
2019-01-03T07:00:17.680Z,-0.10
2019-01-03T07:03:08.686Z,-0.20
2019-01-03T07:05:59.650Z,-0.30
2019-01-03T07:08:53.534Z,-0.40
2019-01-03T07:11:44.499Z,-0.30
2019-01-03T07:14:33.990Z,-0.30
2019-01-03T07:17:33.117Z,-0.30
2019-01-03T07:20:24.585Z,-0.30
2019-01-03T07:23:14.305Z,-0.20
2019-01-03T07:26:03.746Z,-0.20
2019-01-03T07:29:04.776Z,-0.20
2019-01-03T07:32:10.885Z,-0.20
2019-01-03T07:35:13.478Z,-0.20
2019-01-03T07:38:22.666Z,-0.20
2019-01-03T07:41:12.040Z,-0.20
2019-01-03T07:44:01.805Z,-0.20
2019-01-03T07:47:11.074Z,-0.30
2019-01-03T07:49:55.347Z,-0.40
2019-01-03T07:52:46.307Z,-0.40
2019-01-03T07:55:35.625Z,-0.30
2019-01-03T07:58:25.217Z,-0.40
2019-01-03T08:01:16.319Z,-0.40
2019-01-03T08:04:10.081Z,-0.50
2019-01-03T08:06:59.657Z,-0.40
2019-01-03T08:09:49.319Z,-0.40
2019-01-03T08:12:38.862Z,-0.40
2019-01-03T08:15:42.339Z,-0.20
2019-01-03T08:18:42.372Z,-0.10
2019-01-03T08:21:36.610Z,-0.20
2019-01-03T08:24:26.113Z,-0.20
2019-01-03T08:27:20.212Z,0.00
2019-01-03T08:30:22.931Z,0.10
2019-01-03T08:33:03.215Z,0.30
2019-01-03T08:35:54.158Z,0.40
2019-01-03T08:38:53.975Z,0.40
2019-01-03T08:41:45.074Z,0.50
2019-01-03T08:44:38.768Z,0.70
2019-01-03T08:47:35.998Z,1.00
2019-01-03T08:50:30.521Z,1.10
2019-01-03T08:53:37.186Z,0.90
2019-01-03T08:56:26.655Z,0.70
2019-01-03T08:59:20.733Z,0.40
2019-01-03T09:02:21.028Z,0.40
2019-01-03T09:05:18.089Z,0.40
2019-01-03T09:08:24.395Z,0.40
2019-01-03T09:11:27.240Z,0.60
2019-01-03T09:14:24.377Z,0.60
2019-01-03T09:17:21.514Z,0.60
2019-01-03T09:20:11.207Z,0.70
2019-01-03T09:23:14.440Z,0.70
2019-01-03T09:26:17.583Z,0.70
2019-01-03T09:29:08.789Z,0.70
2019-01-03T09:31:59.842Z,0.70
2019-01-03T09:35:05.866Z,0.70
2019-01-03T09:38:05.931Z,0.70
2019-01-03T09:41:03.560Z,0.70
2019-01-03T09:43:53.269Z,0.70
2019-01-03T09:46:25.453Z,0.70
2019-01-03T09:48:57.663Z,0.60
2019-01-03T09:51:29.883Z,0.60
2019-01-03T09:54:02.194Z,0.60
2019-01-03T09:56:34.447Z,0.60
2019-01-03T09:59:06.760Z,0.50
2019-01-03T10:01:39.123Z,0.50
2019-01-03T10:04:11.556Z,0.50
2019-01-03T10:06:43.862Z,0.50
2019-01-03T10:09:16.085Z,0.60
2019-01-03T10:11:48.502Z,0.80
2019-01-03T10:14:20.920Z,0.80
2019-01-03T10:16:53.126Z,0.90
2019-01-03T10:19:25.337Z,0.90
2019-01-03T10:21:57.562Z,0.90
2019-01-03T10:24:29.888Z,0.80
2019-01-03T10:27:02.402Z,0.90
2019-01-03T10:29:34.609Z,0.90
2019-01-03T10:32:07.127Z,0.90
2019-01-03T10:34:39.352Z,1.00
2019-01-03T10:37:11.559Z,1.10
2019-01-03T10:39:43.881Z,1.20
2019-01-03T10:42:17.473Z,1.30
2019-01-03T10:44:49.779Z,1.40
2019-01-03T10:47:22.107Z,1.70
2019-01-03T10:49:54.321Z,1.80
2019-01-03T10:52:26.522Z,1.90
2019-01-03T10:54:58.739Z,2.00
2019-01-03T10:57:30.997Z,2.10
2019-01-03T11:00:03.313Z,2.20
2019-01-03T11:02:35.648Z,2.20
2019-01-03T11:05:08.217Z,2.20
2019-01-03T11:07:40.435Z,2.30
2019-01-03T11:10:12.847Z,2.20
2019-01-03T11:12:45.166Z,2.10
2019-01-03T11:15:17.377Z,2.00
2019-01-03T11:17:49.594Z,1.80
2019-01-03T11:20:21.910Z,1.80
2019-01-03T11:22:54.077Z,1.70
2019-01-03T11:25:26.292Z,1.70
2019-01-03T11:27:58.460Z,1.80
2019-01-03T11:30:30.779Z,1.80
2019-01-03T11:33:02.990Z,1.80
2019-01-03T11:35:35.209Z,1.80
2019-01-03T11:38:07.536Z,1.70
2019-01-03T11:40:39.854Z,1.70
2019-01-03T11:43:12.062Z,1.80
2019-01-03T11:45:44.380Z,1.90
2019-01-03T11:48:16.580Z,1.90
2019-01-03T11:50:48.806Z,1.90
2019-01-03T11:53:21.012Z,2.00
2019-01-03T11:55:53.370Z,2.10
2019-01-03T11:58:25.670Z,2.10
2019-01-03T12:00:58.159Z,2.20
2019-01-03T12:03:30.364Z,2.30
2019-01-03T12:06:02.777Z,2.40
2019-01-03T12:08:34.988Z,2.60
2019-01-03T12:11:07.395Z,2.80
2019-01-03T12:13:39.600Z,3.50
2019-01-03T12:16:11.814Z,4.50
2019-01-03T12:18:44.033Z,5.40
2019-01-03T12:21:16.359Z,6.30
2019-01-03T12:23:48.585Z,7.20
2019-01-03T12:26:20.910Z,8.20
2019-01-03T12:28:53.126Z,9.20
2019-01-03T12:31:25.569Z,10.10
2019-01-03T12:33:58.044Z,10.70
2019-01-03T12:36:30.527Z,11.40
2019-01-03T12:39:02.890Z,12.10
2019-01-03T12:41:35.279Z,12.70
2019-01-03T12:44:07.650Z,13.20
2019-01-03T12:46:40.017Z,13.90
2019-01-03T12:49:12.393Z,14.10
2019-01-03T12:51:44.859Z,14.10
2019-01-03T12:54:17.228Z,14.50
2019-01-03T12:56:49.748Z,14.90
2019-01-03T12:59:22.122Z,14.90
2019-01-03T13:01:54.494Z,15.10
2019-01-03T13:04:26.966Z,15.60
2019-01-03T13:06:59.447Z,15.90
2019-01-03T13:09:31.925Z,16.10
2019-01-03T13:12:04.405Z,16.30
2019-01-03T13:14:36.783Z,16.00
2019-01-03T13:17:09.357Z,15.00
2019-01-03T13:19:41.725Z,13.60
2019-01-03T13:22:14.108Z,12.30
2019-01-03T13:24:46.473Z,10.90
2019-01-03T13:27:18.718Z,9.70
2019-01-03T13:29:51.024Z,8.60
2019-01-03T13:32:23.233Z,7.80
2019-01-03T13:34:55.444Z,7.10
2019-01-03T13:37:27.646Z,6.60
2019-01-03T13:39:59.948Z,6.20
2019-01-03T13:42:32.174Z,5.90
2019-01-03T13:45:04.593Z,5.70
2019-01-03T13:47:36.912Z,5.60
2019-01-03T13:50:09.999Z,6.20
2019-01-03T13:52:42.209Z,7.40
2019-01-03T13:55:14.666Z,8.40
2019-01-03T13:57:46.868Z,8.90
2019-01-03T14:00:19.272Z,8.70
2019-01-03T14:02:51.491Z,7.90
2019-01-03T14:05:23.686Z,7.00
2019-01-03T14:07:55.971Z,6.10
2019-01-03T14:10:28.174Z,5.50
2019-01-03T14:13:00.478Z,5.00
2019-01-03T14:15:32.676Z,4.60
2019-01-03T14:18:04.964Z,4.20
2019-01-03T14:20:37.175Z,3.80
2019-01-03T14:23:09.384Z,3.70
2019-01-03T14:25:41.691Z,3.40
2019-01-03T14:28:14.106Z,3.20
2019-01-03T14:30:46.313Z,3.00
2019-01-03T14:33:18.524Z,2.90
2019-01-03T14:35:50.834Z,2.90
2019-01-03T14:38:23.152Z,2.80
2019-01-03T14:40:55.356Z,2.80
2019-01-03T14:43:27.577Z,2.70
2019-01-03T14:45:59.787Z,2.70
2019-01-03T14:48:32.006Z,2.60
2019-01-03T14:51:04.212Z,2.60
2019-01-03T14:53:36.730Z,2.60
2019-01-03T14:56:09.185Z,2.50
2019-01-03T14:58:41.398Z,2.50
2019-01-03T15:01:13.613Z,2.50
2019-01-03T15:03:45.837Z,2.50
2019-01-03T15:06:18.047Z,2.40
2019-01-03T15:08:50.256Z,2.30
2019-01-03T15:11:22.456Z,2.30
2019-01-03T15:13:54.771Z,2.20
2019-01-03T15:16:27.071Z,2.20
2019-01-03T15:18:59.286Z,2.20
2019-01-03T15:21:31.491Z,2.10
2019-01-03T15:24:03.706Z,2.00
2019-01-03T15:26:36.013Z,1.90
2019-01-03T15:29:08.226Z,1.90
2019-01-03T15:31:40.442Z,1.90
2019-01-03T15:34:12.659Z,1.90
2019-01-03T15:36:45.169Z,1.80
2019-01-03T15:39:17.379Z,1.80
2019-01-03T15:41:49.588Z,1.80
2019-01-03T15:44:21.895Z,1.70
2019-01-03T15:46:54.205Z,1.70
2019-01-03T15:49:26.429Z,1.60
2019-01-03T15:51:58.640Z,1.60
2019-01-03T15:54:30.855Z,1.50
2019-01-03T15:57:03.210Z,1.60
2019-01-03T15:59:35.415Z,1.50
2019-01-03T16:02:07.922Z,1.50
2019-01-03T16:04:40.133Z,1.40
2019-01-03T16:07:12.441Z,1.40
2019-01-03T16:09:44.654Z,1.30
2019-01-03T16:12:16.970Z,1.20
2019-01-03T16:14:49.186Z,1.20
2019-01-03T16:17:21.398Z,1.10
2019-01-03T16:19:53.708Z,1.10
2019-01-03T16:22:25.920Z,1.10
2019-01-03T16:24:58.134Z,1.10
2019-01-03T16:27:30.339Z,1.10
2019-01-03T16:30:02.960Z,1.00
2019-01-03T16:32:35.169Z,1.00
2019-01-03T16:35:07.690Z,1.00
2019-01-03T16:37:40.099Z,1.00
2019-01-03T16:40:12.697Z,1.10
2019-01-03T16:42:46.246Z,1.10
2019-01-03T16:45:18.654Z,1.10
2019-01-03T16:47:50.876Z,1.10
2019-01-03T16:50:23.205Z,1.20
2019-01-03T16:52:55.520Z,1.10
2019-01-03T16:55:28.039Z,1.20
2019-01-03T16:58:00.244Z,1.20
2019-01-03T17:00:32.670Z,1.10
2019-01-03T17:03:05.066Z,1.10
2019-01-03T17:05:37.279Z,1.10
2019-01-03T17:08:09.585Z,1.20
2019-01-03T17:10:41.793Z,1.20
2019-01-03T17:13:14.088Z,1.20
2019-01-03T17:15:46.410Z,1.20
2019-01-03T17:18:18.715Z,1.20
2019-01-03T17:20:51.027Z,1.20
2019-01-03T17:23:24.248Z,1.10
2019-01-03T17:25:56.728Z,1.10
2019-01-03T17:28:29.040Z,1.10
2019-01-03T17:31:01.446Z,1.10
2019-01-03T17:33:33.769Z,1.10
2019-01-03T17:36:06.180Z,1.10
2019-01-03T17:38:38.389Z,1.00
2019-01-03T17:41:10.703Z,1.00
2019-01-03T17:43:43.031Z,1.00
2019-01-03T17:46:15.445Z,1.00
2019-01-03T17:48:47.799Z,1.00
2019-01-03T17:51:20.019Z,1.00
2019-01-03T17:53:52.226Z,1.10
2019-01-03T17:56:24.592Z,1.10
2019-01-03T17:58:56.809Z,1.20
2019-01-03T18:01:29.167Z,1.20
2019-01-03T18:04:01.439Z,1.20
2019-01-03T18:06:33.864Z,1.20
2019-01-03T18:09:06.873Z,1.30
2019-01-03T18:11:39.094Z,1.30
2019-01-03T18:14:11.515Z,1.30
2019-01-03T18:16:43.726Z,1.30
2019-01-03T18:19:16.028Z,1.20
2019-01-03T18:21:48.349Z,1.20
2019-01-03T18:24:20.660Z,1.20
2019-01-03T18:26:53.055Z,1.10
2019-01-03T18:29:25.367Z,1.10
2019-01-03T18:31:57.583Z,1.10
2019-01-03T18:34:29.786Z,1.10
2019-01-03T18:37:02.115Z,1.00
2019-01-03T18:39:34.335Z,1.00
2019-01-03T18:42:06.656Z,1.00
2019-01-03T18:44:38.899Z,1.10
2019-01-03T18:47:11.117Z,1.10
2019-01-03T18:49:43.323Z,1.10
2019-01-03T18:52:15.895Z,1.00
2019-01-03T18:54:48.098Z,1.00
2019-01-03T18:57:21.314Z,1.00
2019-01-03T18:59:53.727Z,0.90
2019-01-03T19:02:26.036Z,0.90
2019-01-03T19:04:58.448Z,1.00
2019-01-03T19:07:30.654Z,1.00
2019-01-03T19:10:03.024Z,1.10
2019-01-03T19:12:35.241Z,1.10
2019-01-03T19:15:08.699Z,1.00
2019-01-03T19:17:41.014Z,1.00
2019-01-03T19:20:13.818Z,1.00
2019-01-03T19:22:46.016Z,1.00
2019-01-03T19:25:21.438Z,1.00
2019-01-03T19:27:53.733Z,1.00
2019-01-03T19:30:25.997Z,1.00
2019-01-03T19:32:58.209Z,1.00
2019-01-03T19:35:30.373Z,1.10
2019-01-03T19:38:02.587Z,1.00
2019-01-03T19:40:35.053Z,1.10
2019-01-03T19:43:07.464Z,1.00
2019-01-03T19:45:39.627Z,1.10
2019-01-03T19:48:11.828Z,1.10
2019-01-03T19:50:43.993Z,1.10
2019-01-03T19:53:16.217Z,1.10
2019-01-03T19:55:48.432Z,1.00
2019-01-03T19:58:20.749Z,1.00
2019-01-03T20:00:52.994Z,1.00
2019-01-03T20:03:25.216Z,1.00
2019-01-03T20:05:57.486Z,0.90
2019-01-03T20:08:29.896Z,1.00
2019-01-03T20:11:02.664Z,1.00
2019-01-03T20:13:34.875Z,1.00
2019-01-03T20:16:07.340Z,0.90
2019-01-03T20:18:39.655Z,0.90
2019-01-03T20:21:11.828Z,0.90
2019-01-03T20:23:44.233Z,0.90
2019-01-03T20:26:16.413Z,0.90
2019-01-03T20:28:48.805Z,0.90
2019-01-03T20:31:21.082Z,0.90
2019-01-03T20:33:53.399Z,0.90
2019-01-03T20:36:25.582Z,0.90
2019-01-03T20:38:57.898Z,0.90
2019-01-03T20:41:30.165Z,1.00
2019-01-03T20:44:02.478Z,1.00
2019-01-03T20:46:34.651Z,1.00
2019-01-03T20:49:06.965Z,1.10
2019-01-03T20:51:39.130Z,1.00
2019-01-03T20:54:11.543Z,1.00
2019-01-03T20:56:43.854Z,1.00
2019-01-03T20:59:16.072Z,1.00
2019-01-03T21:01:48.344Z,1.10
2019-01-03T21:04:20.571Z,1.10
2019-01-03T21:06:52.800Z,1.10
2019-01-03T21:09:25.108Z,1.10
2019-01-03T21:11:57.278Z,1.00
2019-01-03T21:14:29.483Z,1.00
2019-01-03T21:17:01.653Z,1.00
2019-01-03T21:19:34.111Z,1.10
2019-01-03T21:22:07.642Z,1.10
2019-01-03T21:24:39.999Z,1.10
2019-01-03T21:27:12.261Z,1.00
2019-01-03T21:29:44.575Z,1.10
2019-01-03T21:32:17.040Z,1.10
2019-01-03T21:34:49.340Z,1.10
2019-01-03T21:37:21.508Z,1.20
2019-01-03T21:39:53.925Z,1.20
2019-01-03T21:42:26.287Z,1.20
2019-01-03T21:44:58.700Z,1.20
2019-01-03T21:47:30.968Z,1.20
2019-01-03T21:50:03.383Z,1.30
2019-01-03T21:52:35.759Z,1.30
2019-01-03T21:55:08.329Z,1.30
2019-01-03T21:57:40.489Z,1.30
2019-01-03T22:00:14.755Z,1.30
2019-01-03T22:02:47.022Z,1.20
2019-01-03T22:05:19.394Z,1.20
2019-01-03T22:07:51.551Z,1.20
2019-01-03T22:10:23.848Z,1.30
2019-01-03T22:12:56.115Z,1.30
2019-01-03T22:15:28.431Z,1.30
2019-01-03T22:18:00.602Z,1.30
2019-01-03T22:20:32.927Z,1.30
2019-01-03T22:23:05.197Z,1.30
2019-01-03T22:25:37.398Z,1.30
2019-01-03T22:28:09.659Z,1.20
2019-01-03T22:30:42.348Z,1.30
2019-01-03T22:33:14.504Z,1.30
2019-01-03T22:35:46.712Z,1.30
2019-01-03T22:38:18.879Z,1.20
2019-01-03T22:40:51.190Z,1.30
2019-01-03T22:43:23.459Z,1.10
2019-01-03T22:45:55.773Z,1.10
2019-01-03T22:48:27.936Z,1.10
2019-01-03T22:51:00.347Z,1.10
2019-01-03T22:53:32.652Z,1.20
2019-01-03T22:56:05.019Z,1.20
2019-01-03T22:58:37.182Z,1.20
2019-01-03T23:01:10.268Z,1.20
2019-01-03T23:03:42.545Z,1.20
2019-01-03T23:06:14.854Z,1.10
2019-01-03T23:08:47.071Z,1.20
2019-01-03T23:11:19.485Z,1.10
2019-01-03T23:13:51.703Z,1.10
2019-01-03T23:16:24.015Z,1.10
2019-01-03T23:18:56.386Z,1.10
2019-01-03T23:21:28.601Z,1.00
2019-01-03T23:24:00.909Z,1.10
2019-01-03T23:26:33.344Z,1.10
2019-01-03T23:29:05.552Z,1.10
2019-01-03T23:31:37.756Z,1.10
2019-01-03T23:34:10.077Z,1.10
2019-01-03T23:36:42.274Z,1.10
2019-01-03T23:39:14.497Z,1.20
2019-01-03T23:41:46.813Z,1.20
2019-01-03T23:44:19.034Z,1.20
2019-01-03T23:46:51.665Z,1.10
2019-01-03T23:49:23.937Z,1.10
2019-01-03T23:51:56.246Z,1.00
2019-01-03T23:54:28.552Z,1.00
2019-01-03T23:57:00.969Z,1.00
2019-01-03T23:59:33.230Z,1.00
